Aérodrome :
LOGIN :

S'inscrire | Disclaimer

   EN    FR    IT 

 










Légende :    VFR   VFR Marginal   IFR   IFR Intensif   IFR Très Intensif
Visi : 
Plafond : 
>= 8 km
>= 3000ft
5 à 8 km
1000 à 3000 ft
1500m à 5 km
500 à 1000 ft
800 à 1500m
200 à 500 ft
< 800m
< 200 ft
Symboles :   Orages  Brouillard  Fortes neiges  Fortes précipitations  Vent > 20 kt
SIGMETs :   Divers  Orages  Givrage  Turbulence  Onde Orograph.  Cendres Volcan.







- Altitude de l'aérodrome : 162 ft
- Code IATA : BOD
- Voir les cartes d'approche


LFBD - Bordeaux / Merignac

DERNIER METAR :
  • 172300Z AUTO 22001KT 9000 NSC 04/03 Q1028 NOSIG

METARs EXPIRÉS :
  • 172230Z AUTO 22003KT 9999 4900 NSC 04/03 Q1028 NOSIG
  • 172200Z AUTO 24003KT CAVOK 05/04 Q1028 NOSIG
  • 172130Z AUTO 25004KT CAVOK 05/04 Q1027 NOSIG
  • 172100Z AUTO 27005KT CAVOK 05/04 Q1027 NOSIG
  • 172030Z AUTO 27003KT CAVOK 05/04 Q1027 NOSIG

TAF TAF LFBD
Valide du 17 à 18h jusqu'au 19 à 00h UTC


171700Z 1718/1824 30010KT 9999 BKN030
BECMG 1721/1723 VRB03KT
TEMPO 1723/1802 MIFG
PROB40 1802/1809 1500 MIFG
TEMPO 1818/1824 -RA BKN008 BKN030 TX11/1814Z TN03/1806Z
ATIS : +33 5 57 92 81 04
Pas de NOTAMs connus pour ce terrain.



MET'MAP, la Météo Aéronautique d'un coup d'oeil ! - Copyright ORBIFLY Décembre 2007 - Disclaimer

ORBIFLY MET'MAP TEAM :

Programmation & Développement : Alexandra Zaïnal
Conception & Développement : Baudouin d'Aumeries
Co-Programmation & Développement : Marc-Olivier Méhu
Soutien technique & logistique : Manuel Goepfert

Contact : metmap@orbifly.com




SOURCES & CREDITS :

   NOAA